Time;durP1;ratioP1;P1;durP2;ratioP2;P2;SDS_P1;SDS_P2;PMS_P1;PMS_P2;Temp;Humidity;BMP_temperature;BMP_pressure;BME280_temperature;BME280_humidity;BME280_pressure;Samples;Min_cycle;Max_cycle;Signal;HPM_P1;HPM_P2
2023/07/05 00:01:32;;;;;;;11.30;10.10;;;18.00;99.90;;;;;;5012047;28;20406;-74
2023/07/05 00:03:58;;;;;;;12.27;10.50;;;18.00;99.90;;;;;;5012932;28;20030;-74
2023/07/05 00:06:24;;;;;;;13.25;10.40;;;17.90;99.90;;;;;;5012447;28;20411;-74
2023/07/05 00:08:51;;;;;;;13.55;9.73;;;17.90;99.90;;;;;;5012799;28;20071;-74
2023/07/05 00:11:17;;;;;;;11.85;9.10;;;17.80;99.90;;;;;;5011053;28;20470;-74
2023/07/05 00:13:43;;;;;;;12.40;8.57;;;17.70;99.90;;;;;;5011539;28;20392;-74
2023/07/05 00:16:10;;;;;;;10.70;8.52;;;17.70;99.90;;;;;;5010663;28;20041;-73
2023/07/05 00:18:36;;;;;;;9.55;8.00;;;17.60;99.90;;;;;;5011476;28;20041;-73
2023/07/05 00:21:04;;;;;;;12.52;8.15;;;17.60;99.90;;;;;;4995034;28;20037;-74
2023/07/05 00:23:32;;;;;;;12.40;8.00;;;17.50;99.90;;;;;;5011288;28;20030;-74
2023/07/05 00:25:58;;;;;;;8.50;7.40;;;17.50;99.90;;;;;;4994516;28;20042;-74
2023/07/05 00:28:24;;;;;;;9.50;7.25;;;17.60;99.90;;;;;;5011192;28;20045;-74
2023/07/05 00:30:50;;;;;;;12.10;7.85;;;17.60;99.90;;;;;;5010645;28;20037;-74
2023/07/05 00:33:16;;;;;;;8.68;7.15;;;17.50;99.90;;;;;;5010902;28;20049;-74
2023/07/05 00:35:53;;;;;;;11.18;7.55;;;17.50;99.90;;;;;;5012068;28;20093;-74
2023/07/05 00:38:19;;;;;;;11.05;7.20;;;17.40;99.90;;;;;;5027489;28;20034;-73
2023/07/05 00:40:45;;;;;;;13.48;6.90;;;17.40;99.90;;;;;;5025418;28;20025;-73
2023/07/05 00:43:12;;;;;;;9.05;6.53;;;17.40;99.90;;;;;;5031092;28;20030;-76
2023/07/05 00:45:51;;;;;;;9.95;6.38;;;17.30;99.90;;;;;;5015730;28;20022;-77
2023/07/05 00:48:23;;;;;;;9.90;6.75;;;17.30;99.90;;;;;;5015113;28;20034;-74
2023/07/05 00:50:52;;;;;;;10.18;6.25;;;17.30;99.90;;;;;;5030856;28;20510;-74
2023/07/05 00:53:19;;;;;;;8.70;6.38;;;17.30;99.90;;;;;;5014798;28;20048;-74
2023/07/05 00:55:49;;;;;;;12.90;6.13;;;17.30;99.90;;;;;;5027447;28;20034;-74
2023/07/05 00:58:15;;;;;;;11.18;6.30;;;17.40;99.90;;;;;;5011058;28;20046;-74
2023/07/05 01:00:41;;;;;;;10.15;5.80;;;17.40;99.90;;;;;;5014425;28;20509;-74
2023/07/05 01:03:10;;;;;;;10.30;6.70;;;17.40;99.90;;;;;;5014861;28;20057;-74
2023/07/05 01:05:36;;;;;;;7.82;5.43;;;17.40;99.90;;;;;;5014226;28;20390;-74
2023/07/05 01:08:04;;;;;;;9.75;6.43;;;17.50;99.90;;;;;;5016030;28;20410;-74
2023/07/05 01:10:30;;;;;;;11.93;6.38;;;17.40;99.90;;;;;;5014360;28;20479;-73
2023/07/05 01:13:16;;;;;;;10.30;5.75;;;17.40;99.90;;;;;;5014726;28;20475;-73
2023/07/05 01:15:47;;;;;;;8.30;5.38;;;17.40;99.90;;;;;;5014062;28;20041;-74
2023/07/05 01:18:38;;;;;;;7.03;5.70;;;17.40;99.90;;;;;;5014567;28;20033;-73
2023/07/05 01:21:28;;;;;;;9.48;5.50;;;17.40;99.90;;;;;;5014340;28;20037;-74
2023/07/05 01:24:27;;;;;;;9.02;5.65;;;17.40;99.90;;;;;;5014376;28;20379;-73
2023/07/05 01:27:23;;;;;;;8.00;5.22;;;17.40;99.90;;;;;;5014075;28;20046;-74
2023/07/05 01:30:09;;;;;;;6.88;4.70;;;17.40;99.90;;;;;;5015738;28;20030;-74
2023/07/05 01:32:56;;;;;;;8.95;4.75;;;17.30;99.90;;;;;;5014050;28;20145;-74
2023/07/05 01:35:34;;;;;;;5.93;4.35;;;17.30;99.90;;;;;;5014433;28;20034;-73
2023/07/05 01:38:06;;;;;;;8.43;4.47;;;17.20;99.90;;;;;;5010880;28;20030;-74
2023/07/05 01:40:32;;;;;;;8.20;4.53;;;17.20;99.90;;;;;;5013146;28;20412;-74
2023/07/05 01:43:00;;;;;;;8.05;4.43;;;17.10;99.90;;;;;;5015426;28;20025;-74
2023/07/05 01:45:40;;;;;;;7.82;4.88;;;17.10;99.90;;;;;;5014788;28;20387;-73
2023/07/05 01:48:14;;;;;;;9.68;4.90;;;17.00;99.90;;;;;;5013962;28;20014;-74
2023/07/05 01:50:43;;;;;;;8.07;5.10;;;16.90;99.90;;;;;;5045491;28;20046;-74
2023/07/05 01:53:17;;;;;;;9.35;4.80;;;16.90;99.90;;;;;;5029736;28;20046;-73
2023/07/05 01:56:01;;;;;;;8.65;4.65;;;16.90;99.90;;;;;;5029289;28;20473;-74
2023/07/05 01:58:29;;;;;;;6.20;4.50;;;16.90;99.90;;;;;;5029539;28;20046;-74
2023/07/05 02:00:56;;;;;;;10.70;4.47;;;17.00;99.90;;;;;;5022415;28;20321;-74
2023/07/05 02:03:22;;;;;;;8.13;3.88;;;16.90;99.90;;;;;;5006224;28;20031;-74
2023/07/05 02:05:48;;;;;;;9.50;4.32;;;17.00;99.90;;;;;;5025243;28;20030;-74
2023/07/05 02:08:14;;;;;;;9.65;4.03;;;17.00;99.90;;;;;;5011825;28;20110;-76
2023/07/05 02:10:41;;;;;;;5.20;3.53;;;17.00;99.90;;;;;;5012260;28;20033;-76
2023/07/05 02:13:08;;;;;;;10.13;5.00;;;17.10;99.90;;;;;;5013685;28;20029;-77
2023/07/05 02:15:35;;;;;;;10.23;9.05;;;17.10;99.90;;;;;;5012904;28;20030;-76
2023/07/05 02:18:02;;;;;;;14.32;7.82;;;17.00;99.90;;;;;;5012240;28;20038;-77
2023/07/05 02:20:28;;;;;;;10.55;8.98;;;17.00;99.90;;;;;;5011961;28;20306;-77
2023/07/05 02:22:55;;;;;;;10.60;9.30;;;16.90;99.90;;;;;;5011601;28;20022;-76
2023/07/05 02:25:21;;;;;;;9.45;6.72;;;16.90;99.90;;;;;;5027916;28;20712;-74
2023/07/05 02:27:47;;;;;;;9.25;6.25;;;16.90;99.90;;;;;;5013246;28;20037;-74
2023/07/05 02:30:13;;;;;;;9.65;6.07;;;16.90;99.90;;;;;;5012270;28;20056;-74
2023/07/05 02:32:40;;;;;;;9.75;6.05;;;16.90;99.90;;;;;;5028291;28;20487;-74
2023/07/05 02:35:08;;;;;;;8.68;5.93;;;16.80;99.90;;;;;;5028282;28;20034;-74
2023/07/05 02:37:34;;;;;;;12.32;5.95;;;16.80;99.90;;;;;;5013038;28;20030;-74
2023/07/05 02:40:01;;;;;;;10.48;7.28;;;16.70;99.90;;;;;;5029626;28;20046;-74
2023/07/05 02:42:27;;;;;;;11.68;7.28;;;16.70;99.90;;;;;;5045733;28;20026;-74
2023/07/05 02:44:55;;;;;;;10.00;6.88;;;16.70;99.90;;;;;;5029546;28;20029;-74
2023/07/05 02:47:21;;;;;;;6.55;5.90;;;16.60;99.90;;;;;;5013117;28;20057;-74
2023/07/05 02:49:47;;;;;;;8.52;6.55;;;16.60;99.90;;;;;;5045763;28;20058;-74
2023/07/05 02:52:14;;;;;;;15.95;6.97;;;16.50;99.90;;;;;;5045275;28;20034;-74
2023/07/05 02:54:40;;;;;;;9.55;6.65;;;16.50;99.90;;;;;;5029519;28;20038;-74
2023/07/05 02:57:06;;;;;;;10.32;6.13;;;16.50;99.90;;;;;;5012507;28;20042;-74
2023/07/05 02:59:32;;;;;;;8.65;5.85;;;16.50;99.90;;;;;;5012757;28;20486;-74
2023/07/05 03:01:58;;;;;;;10.63;6.28;;;16.50;99.90;;;;;;5013368;28;20479;-74
2023/07/05 03:04:26;;;;;;;9.82;4.90;;;16.50;99.90;;;;;;5013243;28;20038;-74
2023/07/05 03:06:52;;;;;;;11.50;4.40;;;16.40;99.90;;;;;;5013199;28;20038;-74
2023/07/05 03:09:18;;;;;;;12.20;4.88;;;16.40;99.90;;;;;;5013958;28;20037;-74
2023/07/05 03:11:44;;;;;;;7.15;4.07;;;16.30;99.90;;;;;;5012332;28;20042;-74
2023/07/05 03:14:10;;;;;;;10.32;4.30;;;16.30;99.90;;;;;;5013594;28;20022;-74
2023/07/05 03:16:36;;;;;;;16.73;4.80;;;16.30;99.90;;;;;;5011734;28;20033;-74
2023/07/05 03:19:02;;;;;;;9.70;4.70;;;16.30;99.90;;;;;;5012362;28;20033;-74
2023/07/05 03:21:28;;;;;;;9.57;5.13;;;16.30;99.90;;;;;;5011817;28;20038;-74
2023/07/05 03:23:54;;;;;;;10.13;5.00;;;16.30;99.90;;;;;;5012358;28;20089;-74
2023/07/05 03:26:20;;;;;;;10.15;5.18;;;16.40;99.90;;;;;;5011835;28;20034;-74
2023/07/05 03:28:46;;;;;;;10.23;5.13;;;16.30;99.90;;;;;;5013460;28;20033;-73
2023/07/05 03:31:14;;;;;;;12.52;5.68;;;16.30;99.90;;;;;;5011531;28;20039;-74
2023/07/05 03:33:40;;;;;;;11.68;5.38;;;16.30;99.90;;;;;;5045173;28;20032;-74
2023/07/05 03:36:10;;;;;;;9.45;5.28;;;16.20;99.90;;;;;;5038563;28;20090;-74
2023/07/05 03:38:36;;;;;;;11.82;5.07;;;16.30;99.90;;;;;;4992572;28;20034;-74
2023/07/05 03:41:16;;;;;;;13.32;5.75;;;16.20;99.90;;;;;;4999521;28;20521;-74
2023/07/05 03:43:43;;;;;;;13.05;5.30;;;16.20;99.90;;;;;;5012170;28;20037;-74
2023/07/05 03:46:10;;;;;;;10.32;6.45;;;16.20;99.90;;;;;;5012521;28;20053;-74
2023/07/05 03:48:38;;;;;;;11.32;5.97;;;16.20;99.90;;;;;;5011673;28;20098;-74
2023/07/05 03:51:04;;;;;;;12.82;6.45;;;16.20;99.90;;;;;;5012652;28;20042;-74
2023/07/05 03:53:33;;;;;;;8.73;5.63;;;16.20;99.90;;;;;;5013016;28;20410;-74
2023/07/05 03:56:05;;;;;;;9.20;5.70;;;16.20;99.90;;;;;;5013006;28;20032;-74
2023/07/05 03:58:31;;;;;;;10.48;4.97;;;16.20;99.90;;;;;;5011804;28;20056;-74
2023/07/05 04:01:08;;;;;;;12.07;6.00;;;16.20;99.90;;;;;;5011316;28;20050;-74
2023/07/05 04:03:34;;;;;;;9.40;5.82;;;16.20;99.90;;;;;;5011567;28;20502;-74
2023/07/05 04:06:02;;;;;;;12.25;5.85;;;16.10;99.90;;;;;;5012837;28;20038;-74
2023/07/05 04:08:28;;;;;;;10.20;6.20;;;16.10;99.90;;;;;;5012782;28;20033;-74
2023/07/05 04:10:54;;;;;;;11.90;5.88;;;16.20;99.90;;;;;;5012858;28;20030;-74
2023/07/05 04:13:20;;;;;;;7.75;5.80;;;16.10;99.90;;;;;;5012952;28;20379;-74
2023/07/05 04:15:46;;;;;;;12.88;6.15;;;16.10;99.90;;;;;;5012233;28;20045;-74
2023/07/05 04:18:12;;;;;;;9.05;5.82;;;16.10;99.90;;;;;;5012284;28;20037;-74
2023/07/05 04:20:39;;;;;;;9.70;6.13;;;16.10;99.90;;;;;;5012760;28;20049;-74
2023/07/05 04:23:05;;;;;;;10.30;6.50;;;16.10;99.90;;;;;;5011504;28;20030;-74
2023/07/05 04:25:31;;;;;;;7.30;5.50;;;16.10;99.90;;;;;;5012466;28;20034;-74
2023/07/05 04:27:57;;;;;;;11.48;5.97;;;16.10;99.90;;;;;;5011453;28;20037;-74
2023/07/05 04:30:23;;;;;;;7.75;6.28;;;16.10;99.90;;;;;;5010948;28;20026;-74
2023/07/05 04:32:49;;;;;;;8.45;6.03;;;16.10;99.90;;;;;;5012202;28;20387;-74
2023/07/05 04:35:16;;;;;;;10.43;6.00;;;16.20;99.90;;;;;;5027957;28;20029;-74
2023/07/05 04:37:42;;;;;;;8.55;6.07;;;16.20;99.90;;;;;;5012484;28;20057;-74
2023/07/05 04:40:09;;;;;;;10.20;6.95;;;16.20;99.90;;;;;;5027722;28;20045;-74
2023/07/05 04:42:35;;;;;;;8.48;6.43;;;16.20;99.90;;;;;;5012408;28;20034;-74
2023/07/05 04:45:01;;;;;;;7.88;6.10;;;16.20;99.90;;;;;;5012840;28;20042;-74
2023/07/05 04:47:27;;;;;;;10.27;6.72;;;16.20;99.90;;;;;;5011608;28;20038;-74
2023/07/05 04:49:53;;;;;;;8.80;6.90;;;16.20;99.90;;;;;;5012252;28;20411;-76
2023/07/05 04:52:20;;;;;;;9.77;7.28;;;16.20;99.90;;;;;;5012424;28;20056;-76
2023/07/05 04:54:46;;;;;;;11.93;6.38;;;16.10;99.90;;;;;;5012607;28;20452;-76
2023/07/05 04:57:12;;;;;;;10.52;7.63;;;16.20;99.90;;;;;;5012336;28;20030;-76
2023/07/05 04:59:43;;;;;;;10.55;7.10;;;16.20;99.90;;;;;;5012253;28;20395;-76
2023/07/05 05:02:10;;;;;;;10.85;8.73;;;16.20;99.90;;;;;;5011757;28;20057;-76
2023/07/05 05:04:36;;;;;;;8.75;7.43;;;16.20;99.90;;;;;;5043961;28;20479;-77
2023/07/05 05:07:02;;;;;;;10.65;7.93;;;16.20;99.90;;;;;;5043911;28;20030;-77
2023/07/05 05:09:29;;;;;;;7.88;6.63;;;16.30;99.90;;;;;;5043916;28;20344;-76
2023/07/05 05:11:55;;;;;;;8.98;8.02;;;16.30;99.90;;;;;;5044065;28;20502;-76
2023/07/05 05:14:21;;;;;;;12.43;8.05;;;16.50;99.90;;;;;;5012299;28;20018;-76
2023/07/05 05:16:47;;;;;;;14.55;7.18;;;16.60;99.90;;;;;;5011372;28;20045;-76
2023/07/05 05:19:13;;;;;;;10.27;5.38;;;16.80;99.90;;;;;;5043938;28;20393;-76
2023/07/05 05:21:39;;;;;;;7.40;5.43;;;16.90;99.90;;;;;;5027093;28;20041;-77
2023/07/05 05:24:06;;;;;;;7.00;5.78;;;17.10;99.90;;;;;;5012379;28;20366;-74
2023/07/05 05:26:32;;;;;;;9.27;5.57;;;17.30;99.90;;;;;;5026812;28;20476;-74
2023/07/05 05:28:58;;;;;;;9.07;6.28;;;17.40;99.90;;;;;;5014799;28;20037;-74
2023/07/05 05:31:24;;;;;;;10.45;6.75;;;17.60;99.90;;;;;;5046890;28;20033;-74
2023/07/05 05:33:50;;;;;;;11.20;9.20;;;17.70;99.90;;;;;;5015852;28;20034;-75
2023/07/05 05:36:16;;;;;;;11.48;9.90;;;17.80;99.90;;;;;;5015409;28;20032;-74
2023/07/05 05:38:42;;;;;;;10.18;8.65;;;17.80;99.90;;;;;;5015691;28;20037;-74
2023/07/05 05:41:10;;;;;;;9.40;8.40;;;17.70;99.90;;;;;;5030728;28;20038;-74
2023/07/05 05:43:38;;;;;;;11.20;8.07;;;17.70;99.90;;;;;;5030486;28;20018;-74
2023/07/05 05:46:04;;;;;;;8.57;7.65;;;17.60;99.90;;;;;;5014471;28;20041;-74
2023/07/05 05:48:30;;;;;;;8.77;7.90;;;17.60;99.90;;;;;;5020840;28;20041;-74
2023/07/05 05:50:56;;;;;;;10.82;9.35;;;17.50;99.90;;;;;;4995604;28;20480;-75
2023/07/05 05:53:22;;;;;;;13.48;12.23;;;17.40;99.90;;;;;;5010933;28;20034;-74
2023/07/05 05:55:48;;;;;;;11.20;10.13;;;17.40;99.90;;;;;;4995627;28;20034;-74
2023/07/05 05:58:15;;;;;;;11.25;8.60;;;17.40;99.90;;;;;;4995413;28;20062;-74
2023/07/05 06:00:41;;;;;;;11.25;8.95;;;17.50;99.90;;;;;;4994851;28;20042;-74
2023/07/05 06:03:07;;;;;;;11.02;10.02;;;17.60;99.90;;;;;;4995567;28;20368;-74
2023/07/05 06:05:33;;;;;;;11.00;9.63;;;17.80;99.90;;;;;;4994437;28;20041;-74
2023/07/05 06:07:59;;;;;;;11.32;9.57;;;17.90;99.90;;;;;;4995526;28;20034;-74
2023/07/05 06:10:25;;;;;;;10.00;8.98;;;18.00;99.90;;;;;;4995337;28;20041;-74
2023/07/05 06:12:51;;;;;;;10.07;9.05;;;18.10;99.90;;;;;;4995460;28;20035;-74
2023/07/05 06:15:18;;;;;;;12.30;8.95;;;18.20;99.90;;;;;;4994730;28;20034;-74
2023/07/05 06:17:44;;;;;;;10.43;7.93;;;18.40;99.90;;;;;;4995186;28;20027;-74
2023/07/05 06:20:10;;;;;;;13.60;7.47;;;18.50;99.90;;;;;;4995106;28;20045;-74
2023/07/05 06:22:37;;;;;;;10.57;7.97;;;18.60;99.90;;;;;;5026895;28;20027;-74
2023/07/05 06:25:03;;;;;;;9.55;6.97;;;18.70;99.90;;;;;;5010327;28;20038;-74
2023/07/05 06:27:29;;;;;;;10.52;6.63;;;18.80;99.90;;;;;;5009696;28;20051;-74
2023/07/05 06:29:55;;;;;;;11.77;7.07;;;18.90;99.90;;;;;;4994817;28;20019;-74
2023/07/05 06:32:22;;;;;;;10.20;7.10;;;19.00;99.90;;;;;;5029258;28;20053;-74
2023/07/05 06:34:48;;;;;;;11.00;6.63;;;19.10;99.90;;;;;;5029190;28;20041;-75
2023/07/05 06:37:15;;;;;;;8.77;6.75;;;19.20;99.90;;;;;;5014317;28;20038;-74
2023/07/05 06:39:41;;;;;;;7.65;6.85;;;19.20;99.90;;;;;;5028396;28;20026;-74
2023/07/05 06:42:07;;;;;;;10.63;6.88;;;19.30;99.90;;;;;;5029548;28;20038;-74
2023/07/05 06:44:34;;;;;;;10.68;6.82;;;19.30;99.90;;;;;;5029360;28;20037;-75
2023/07/05 06:47:00;;;;;;;11.07;6.40;;;19.30;99.90;;;;;;5029071;28;20030;-74
2023/07/05 06:49:26;;;;;;;10.85;7.20;;;19.30;99.90;;;;;;5014141;28;20479;-73
2023/07/05 06:51:53;;;;;;;13.73;6.72;;;19.30;99.90;;;;;;5046114;28;20022;-74
2023/07/05 06:54:20;;;;;;;11.00;6.93;;;19.40;99.90;;;;;;5029431;28;20514;-74
2023/07/05 06:56:46;;;;;;;12.38;6.75;;;19.40;99.90;;;;;;5028621;28;20038;-74
2023/07/05 06:59:12;;;;;;;11.20;7.20;;;19.30;99.90;;;;;;5014276;28;20387;-74
2023/07/05 07:01:39;;;;;;;12.98;6.65;;;19.30;99.90;;;;;;5045180;28;20380;-74
2023/07/05 07:04:05;;;;;;;13.23;7.35;;;19.40;99.90;;;;;;5045778;28;20030;-74
2023/07/05 07:06:32;;;;;;;11.75;6.75;;;19.40;99.90;;;;;;5014001;28;20411;-74
2023/07/05 07:08:58;;;;;;;12.80;6.93;;;19.40;99.90;;;;;;5014001;28;20076;-74
2023/07/05 07:11:24;;;;;;;11.48;7.47;;;19.40;99.90;;;;;;5028698;28;20045;-74
2023/07/05 07:13:50;;;;;;;10.32;7.13;;;19.40;99.90;;;;;;5013776;28;20037;-74
2023/07/05 07:16:16;;;;;;;12.60;8.00;;;19.50;99.90;;;;;;5028659;28;20030;-74
2023/07/05 07:18:46;;;;;;;10.30;7.47;;;19.60;99.90;;;;;;5012126;28;20033;-74
2023/07/05 07:21:12;;;;;;;10.90;8.05;;;19.50;99.90;;;;;;5023427;28;20037;-75
2023/07/05 07:23:39;;;;;;;11.20;8.18;;;19.60;99.90;;;;;;5010318;28;20022;-74
2023/07/05 07:26:09;;;;;;;12.13;8.20;;;19.70;99.90;;;;;;5009809;28;20045;-74
2023/07/05 07:28:35;;;;;;;12.18;8.25;;;19.70;99.90;;;;;;5010296;28;20034;-74
2023/07/05 07:31:15;;;;;;;10.00;9.10;;;19.80;99.90;;;;;;5011903;28;20033;-74
2023/07/05 07:33:41;;;;;;;10.77;9.68;;;20.00;99.90;;;;;;5028611;28;20029;-74
2023/07/05 07:36:12;;;;;;;11.05;9.82;;;20.20;99.90;;;;;;5013214;28;20033;-74
2023/07/05 07:38:39;;;;;;;14.55;10.23;;;20.30;99.90;;;;;;5012353;28;20026;-74
2023/07/05 07:41:11;;;;;;;12.18;10.38;;;20.50;99.90;;;;;;5028134;28;20041;-74
2023/07/05 07:43:37;;;;;;;13.43;12.05;;;20.70;99.90;;;;;;5028466;28;20018;-74
2023/07/05 07:46:10;;;;;;;14.05;12.75;;;20.90;99.90;;;;;;5011729;28;20055;-74
2023/07/05 07:48:37;;;;;;;13.23;11.80;;;21.10;99.90;;;;;;5011997;28;20030;-74
2023/07/05 07:51:03;;;;;;;15.60;14.20;;;21.20;99.90;;;;;;5012745;28;20109;-74
2023/07/05 07:53:29;;;;;;;15.98;14.52;;;21.30;99.90;;;;;;5013060;28;20030;-74
2023/07/05 07:55:56;;;;;;;15.85;14.65;;;21.40;99.90;;;;;;5012842;28;20482;-74
2023/07/05 07:58:22;;;;;;;15.90;14.70;;;21.60;99.90;;;;;;5011607;28;20041;-74
2023/07/05 08:00:48;;;;;;;16.33;14.65;;;21.80;99.90;;;;;;5012404;28;20038;-74
2023/07/05 08:03:14;;;;;;;17.65;16.05;;;21.90;99.90;;;;;;5012930;28;20057;-74
2023/07/05 08:05:41;;;;;;;17.52;16.02;;;21.90;99.90;;;;;;5012854;28;20029;-74
2023/07/05 08:08:07;;;;;;;16.50;15.15;;;21.90;99.90;;;;;;5012022;28;20067;-74
2023/07/05 08:10:33;;;;;;;17.17;15.48;;;22.00;99.90;;;;;;5012464;28;20037;-74
2023/07/05 08:12:59;;;;;;;17.98;16.23;;;21.90;99.90;;;;;;5012940;28;20026;-74
2023/07/05 08:15:25;;;;;;;18.73;16.85;;;22.00;99.90;;;;;;5011164;28;20030;-73
2023/07/05 08:17:51;;;;;;;17.48;16.08;;;21.80;99.90;;;;;;5011693;28;20026;-74
2023/07/05 08:20:17;;;;;;;18.60;17.20;;;21.90;99.90;;;;;;5012631;28;20037;-74
2023/07/05 08:22:43;;;;;;;16.52;14.80;;;22.10;99.90;;;;;;5012776;28;20094;-74
2023/07/05 08:25:09;;;;;;;15.75;14.35;;;22.20;99.90;;;;;;5012412;28;20029;-75
2023/07/05 08:27:35;;;;;;;15.60;14.50;;;22.50;99.90;;;;;;5012588;28;20034;-74
2023/07/05 08:30:01;;;;;;;13.68;12.57;;;22.60;99.90;;;;;;5012765;28;20033;-75
2023/07/05 08:32:27;;;;;;;15.75;14.30;;;22.80;99.90;;;;;;5010704;28;20040;-74
2023/07/05 08:34:54;;;;;;;19.10;17.52;;;22.80;99.90;;;;;;5012438;28;20026;-77
2023/07/05 08:37:22;;;;;;;16.73;15.52;;;22.80;99.90;;;;;;5012534;28;20036;-77
2023/07/05 08:39:48;;;;;;;19.48;17.67;;;22.80;99.90;;;;;;5011981;28;20042;-77
2023/07/05 08:42:30;;;;;;;13.60;12.50;;;22.80;99.90;;;;;;5027706;28;20025;-77
2023/07/05 08:45:12;;;;;;;16.02;14.73;;;22.80;99.90;;;;;;5027783;28;20034;-77
2023/07/05 08:47:44;;;;;;;14.80;13.50;;;23.00;99.90;;;;;;4991939;28;20057;-75
2023/07/05 08:50:13;;;;;;;13.07;12.02;;;23.20;99.90;;;;;;5007825;28;20054;-77
2023/07/05 08:52:43;;;;;;;15.50;14.13;;;23.40;99.90;;;;;;4991414;28;20411;-77
2023/07/05 08:55:18;;;;;;;15.20;13.77;;;23.40;99.90;;;;;;5007882;28;20035;-77
2023/07/05 08:57:54;;;;;;;13.43;12.13;;;23.60;99.90;;;;;;5007617;28;20031;-74
2023/07/05 09:00:38;;;;;;;17.23;15.85;;;23.80;99.90;;;;;;5008654;28;20034;-74
2023/07/05 09:03:11;;;;;;;12.25;11.05;;;24.00;99.90;;;;;;5044275;28;20029;-78
2023/07/05 09:06:09;;;;;;;14.23;13.00;;;24.00;99.90;;;;;;5047178;28;20022;-74
2023/07/05 09:09:05;;;;;;;17.80;16.60;;;24.10;99.90;;;;;;5006388;28;20039;-75
2023/07/05 09:11:50;;;;;;;18.52;17.13;;;24.30;99.90;;;;;;5007977;28;20033;-74
2023/07/05 09:14:40;;;;;;;20.30;18.83;;;24.40;99.90;;;;;;4994208;28;20042;-74
2023/07/05 09:17:42;;;;;;;20.30;19.02;;;24.30;99.90;;;;;;4993794;28;20045;-77
2023/07/05 09:20:36;;;;;;;22.05;20.63;;;24.50;99.90;;;;;;4990634;28;20050;-75
2023/07/05 09:23:05;;;;;;;21.17;19.88;;;24.70;99.90;;;;;;4993786;28;20045;-74
2023/07/05 09:25:31;;;;;;;21.85;20.42;;;24.80;99.90;;;;;;4993968;28;20385;-74
2023/07/05 09:28:07;;;;;;;20.52;19.05;;;24.70;99.90;;;;;;4993247;28;20403;-75
2023/07/05 09:30:33;;;;;;;18.17;16.60;;;24.60;99.90;;;;;;5009848;28;20296;-75
2023/07/05 09:33:10;;;;;;;20.15;18.95;;;24.60;99.90;;;;;;4993703;28;20049;-74
2023/07/05 09:35:36;;;;;;;19.48;18.23;;;24.80;99.90;;;;;;5001807;28;20038;-74
2023/07/05 09:38:05;;;;;;;21.63;20.38;;;24.90;99.90;;;;;;4974157;28;20078;-74
2023/07/05 09:40:33;;;;;;;20.13;18.63;;;25.00;99.90;;;;;;4974282;28;20131;-75
2023/07/05 09:43:18;;;;;;;20.73;19.23;;;25.00;99.90;;;;;;4973588;28;20043;-75
2023/07/05 09:45:44;;;;;;;21.58;19.92;;;25.00;99.90;;;;;;5006196;28;20033;-74
2023/07/05 09:48:11;;;;;;;20.58;19.27;;;25.00;99.90;;;;;;5047167;28;20379;-74
2023/07/05 09:50:37;;;;;;;21.55;20.10;;;25.00;99.90;;;;;;5014114;28;20044;-75
2023/07/05 09:53:23;;;;;;;20.13;18.73;;;25.10;99.90;;;;;;5013755;28;20034;-74
2023/07/05 09:56:05;;;;;;;19.50;18.15;;;25.20;99.90;;;;;;5014022;28;20026;-74
2023/07/05 09:58:33;;;;;;;20.48;18.92;;;25.30;99.90;;;;;;5014221;28;20025;-74
2023/07/05 10:01:04;;;;;;;25.23;23.52;;;25.50;99.80;;;;;;5014794;28;20030;-74
2023/07/05 10:03:57;;;;;;;20.15;18.75;;;25.70;99.10;;;;;;5014078;28;20022;-74
2023/07/05 10:06:24;;;;;;;23.92;22.30;;;25.70;99.10;;;;;;5010648;28;20034;-75
2023/07/05 10:08:52;;;;;;;18.65;17.42;;;25.60;98.80;;;;;;5013977;28;20026;-74
2023/07/05 10:11:18;;;;;;;29.35;27.55;;;25.50;99.50;;;;;;5013805;28;20026;-75
2023/07/05 10:13:45;;;;;;;25.45;23.50;;;25.50;98.40;;;;;;5013377;28;20045;-74
2023/07/05 10:16:11;;;;;;;19.80;18.45;;;25.40;97.50;;;;;;5013207;28;20030;-74
2023/07/05 10:18:40;;;;;;;25.85;24.38;;;25.50;98.30;;;;;;5015125;28;20033;-74
2023/07/05 10:21:19;;;;;;;34.22;32.40;;;25.40;97.50;;;;;;5013350;28;20041;-74
2023/07/05 10:23:46;;;;;;;24.33;22.83;;;25.20;96.60;;;;;;5013776;28;20888;-74
2023/07/05 10:26:13;;;;;;;21.80;20.50;;;25.00;97.30;;;;;;5013621;28;20383;-74
2023/07/05 10:28:41;;;;;;;21.13;19.73;;;24.90;97.90;;;;;;5013614;28;20033;-74
2023/07/05 10:31:23;;;;;;;20.35;19.05;;;24.90;98.20;;;;;;5012977;28;20395;-74
2023/07/05 10:33:49;;;;;;;20.85;19.50;;;25.00;98.30;;;;;;5013342;28;20026;-74
2023/07/05 10:36:17;;;;;;;19.48;18.25;;;25.10;98.40;;;;;;5009583;28;20026;-75
2023/07/05 10:38:48;;;;;;;19.35;18.25;;;25.30;98.20;;;;;;4993948;28;20030;-75
2023/07/05 10:41:20;;;;;;;21.20;19.80;;;25.30;98.10;;;;;;4993678;28;20038;-74
2023/07/05 10:44:07;;;;;;;22.17;20.83;;;25.10;98.00;;;;;;4994858;28;20376;-77
2023/07/05 10:46:37;;;;;;;19.75;18.42;;;24.90;97.60;;;;;;4993135;28;20038;-74
2023/07/05 10:49:06;;;;;;;21.40;20.02;;;24.80;98.00;;;;;;5017696;28;20045;-74
2023/07/05 10:51:37;;;;;;;21.35;19.95;;;24.90;98.20;;;;;;4996713;28;20052;-74
2023/07/05 10:54:24;;;;;;;21.00;19.67;;;24.80;97.40;;;;;;4997109;28;20026;-74
2023/07/05 10:56:50;;;;;;;20.60;19.30;;;24.80;98.00;;;;;;5013024;28;20045;-74
2023/07/05 10:59:25;;;;;;;18.13;17.10;;;24.80;97.90;;;;;;5012913;28;20032;-74
2023/07/05 11:01:55;;;;;;;20.17;18.60;;;24.90;97.30;;;;;;5013602;28;20097;-74
2023/07/05 11:04:22;;;;;;;21.58;20.27;;;24.90;97.60;;;;;;5012600;28;20030;-74
2023/07/05 11:06:48;;;;;;;22.15;20.95;;;24.90;97.00;;;;;;5012765;28;20025;-74
2023/07/05 11:09:15;;;;;;;23.80;22.40;;;24.90;96.60;;;;;;5012948;28;20049;-75
2023/07/05 11:11:53;;;;;;;21.48;20.15;;;24.90;96.50;;;;;;5012376;28;20034;-74
2023/07/05 11:14:19;;;;;;;19.23;17.98;;;24.90;97.40;;;;;;4997088;28;20479;-74
2023/07/05 11:16:46;;;;;;;21.95;20.63;;;25.10;97.60;;;;;;4995571;28;20038;-73
2023/07/05 11:19:14;;;;;;;27.05;25.45;;;25.40;97.30;;;;;;5012414;28;20028;-74
2023/07/05 11:21:44;;;;;;;27.25;25.55;;;25.60;96.50;;;;;;5012403;28;20467;-74
2023/07/05 11:24:11;;;;;;;27.88;26.33;;;25.90;96.50;;;;;;5012424;28;20030;-74
2023/07/05 11:26:39;;;;;;;30.10;28.35;;;26.00;95.80;;;;;;5013026;28;20045;-75
2023/07/05 11:29:27;;;;;;;29.33;27.60;;;26.10;96.10;;;;;;4996012;28;20050;-74
2023/07/05 11:31:53;;;;;;;49.03;46.33;;;26.30;96.10;;;;;;5013080;28;20030;-75
2023/07/05 11:34:25;;;;;;;38.70;36.40;;;26.30;94.90;;;;;;5013182;28;20034;-75
2023/07/05 11:36:52;;;;;;;43.35;40.95;;;26.30;95.40;;;;;;5008896;28;20034;-74
2023/07/05 11:39:34;;;;;;;44.60;42.08;;;26.30;95.30;;;;;;5025570;28;20463;-74
2023/07/05 11:42:12;;;;;;;26.63;25.13;;;26.20;94.70;;;;;;5025215;28;20038;-74
2023/07/05 11:44:48;;;;;;;45.85;43.35;;;26.30;95.70;;;;;;4993629;28;20026;-75
2023/07/05 11:47:23;;;;;;;35.25;33.30;;;26.20;94.60;;;;;;5024401;28;20030;-75
2023/07/05 11:50:01;;;;;;;33.00;31.27;;;26.20;95.00;;;;;;5008427;28;20042;-75
2023/07/05 11:52:31;;;;;;;30.17;28.52;;;26.10;94.40;;;;;;4991779;28;20053;-75
2023/07/05 11:55:24;;;;;;;36.88;34.72;;;26.10;94.60;;;;;;4991491;28;20085;-75
2023/07/05 11:58:14;;;;;;;34.97;32.83;;;26.00;94.30;;;;;;4976309;28;20472;-75
2023/07/05 12:00:58;;;;;;;23.23;21.88;;;25.90;94.20;;;;;;4975505;28;20030;-74
2023/07/05 12:03:25;;;;;;;23.20;21.73;;;25.90;94.70;;;;;;4991278;28;20030;-77
2023/07/05 12:06:09;;;;;;;22.20;20.80;;;25.80;94.50;;;;;;4975266;28;20022;-74
2023/07/05 12:08:44;;;;;;;25.73;24.02;;;25.70;95.00;;;;;;4992593;28;20042;-75
2023/07/05 12:11:11;;;;;;;25.63;24.27;;;25.90;94.90;;;;;;4975353;28;20022;-74
2023/07/05 12:13:37;;;;;;;30.50;28.77;;;26.00;95.00;;;;;;4975389;28;20057;-74
2023/07/05 12:16:07;;;;;;;40.20;37.75;;;26.20;94.50;;;;;;4983524;28;20035;-74
2023/07/05 12:18:33;;;;;;;39.47;37.28;;;26.40;94.30;;;;;;4956224;28;20019;-74
2023/07/05 12:21:03;;;;;;;49.10;46.60;;;26.40;93.90;;;;;;4955719;28;20373;-75
2023/07/05 12:23:29;;;;;;;40.22;38.05;;;26.50;93.30;;;;;;4955832;28;20105;-75
2023/07/05 12:25:59;;;;;;;41.50;39.28;;;26.70;93.70;;;;;;4971538;28;20049;-74
2023/07/05 12:28:27;;;;;;;66.37;63.07;;;26.80;93.50;;;;;;4971661;28;20034;-75
2023/07/05 12:31:01;;;;;;;56.97;53.90;;;26.90;92.60;;;;;;4977608;28;20296;-74
2023/07/05 12:33:30;;;;;;;56.40;53.40;;;27.00;92.80;;;;;;4991114;28;20495;-74
2023/07/05 12:36:09;;;;;;;53.85;51.13;;;27.10;92.60;;;;;;4981536;28;20011;-74
2023/07/05 12:38:36;;;;;;;85.85;81.53;;;27.00;92.30;;;;;;4989917;28;20042;-75
2023/07/05 12:41:03;;;;;;;52.22;49.28;;;26.80;91.30;;;;;;4991061;28;20023;-74
2023/07/05 12:43:32;;;;;;;54.58;51.45;;;26.60;92.10;;;;;;4990803;28;20150;-75
2023/07/05 12:46:06;;;;;;;38.47;36.40;;;26.50;91.60;;;;;;4990103;28;20030;-74
2023/07/05 12:48:32;;;;;;;36.28;34.28;;;26.50;92.50;;;;;;5007077;28;20029;-75